sensor_id;sensor_type;location;lat;lon;timestamp;P1;durP1;ratioP1;P2;durP2;ratioP2
80776;SDS011;70169;51.262;6.336;2024-03-06T14:24:49;15.40;;;9.13;;
80776;SDS011;70169;51.262;6.336;2024-03-06T14:27:04;12.75;;;7.95;;
80776;SDS011;70169;51.262;6.336;2024-03-06T14:29:20;15.05;;;8.55;;
80776;SDS011;70169;51.262;6.336;2024-03-06T14:31:36;14.67;;;8.17;;
80776;SDS011;70169;51.262;6.336;2024-03-06T14:33:51;14.25;;;8.35;;
80776;SDS011;70169;51.262;6.336;2024-03-06T14:36:07;12.07;;;7.57;;
80776;SDS011;70169;51.262;6.336;2024-03-06T14:38:22;14.23;;;9.00;;
80776;SDS011;70169;51.262;6.336;2024-03-06T14:40:37;12.67;;;7.53;;
80776;SDS011;70169;51.262;6.336;2024-03-06T14:42:53;12.20;;;8.00;;
80776;SDS011;70169;51.262;6.336;2024-03-06T14:45:08;12.13;;;7.93;;
80776;SDS011;70169;51.262;6.336;2024-03-06T14:47:24;13.73;;;8.68;;
80776;SDS011;70169;51.262;6.336;2024-03-06T14:49:44;13.80;;;8.68;;
80776;SDS011;70169;51.262;6.336;2024-03-06T14:52:00;13.40;;;8.23;;
80776;SDS011;70169;51.262;6.336;2024-03-06T14:54:15;11.23;;;7.23;;
80776;SDS011;70169;51.262;6.336;2024-03-06T14:56:30;12.10;;;8.17;;
80776;SDS011;70169;51.262;6.336;2024-03-06T14:58:46;11.77;;;8.20;;
80776;SDS011;70169;51.262;6.336;2024-03-06T15:01:01;12.67;;;8.57;;
80776;SDS011;70169;51.262;6.336;2024-03-06T15:03:17;10.83;;;7.60;;
80776;SDS011;70169;51.262;6.336;2024-03-06T15:05:35;13.02;;;8.23;;
80776;SDS011;70169;51.262;6.336;2024-03-06T15:07:51;18.55;;;11.48;;
80776;SDS011;70169;51.262;6.336;2024-03-06T15:10:06;39.40;;;19.70;;
80776;SDS011;70169;51.262;6.336;2024-03-06T15:12:26;44.22;;;19.50;;
80776;SDS011;70169;51.262;6.336;2024-03-06T15:14:41;98.90;;;35.50;;
80776;SDS011;70169;51.262;6.336;2024-03-06T15:16:56;81.13;;;34.97;;
80776;SDS011;70169;51.262;6.336;2024-03-06T15:19:12;48.67;;;18.97;;
80776;SDS011;70169;51.262;6.336;2024-03-06T15:21:27;39.60;;;19.03;;
80776;SDS011;70169;51.262;6.336;2024-03-06T15:23:42;41.07;;;20.07;;
80776;SDS011;70169;51.262;6.336;2024-03-06T15:25:58;30.37;;;17.47;;
80776;SDS011;70169;51.262;6.336;2024-03-06T15:28:13;28.75;;;15.13;;
80776;SDS011;70169;51.262;6.336;2024-03-06T15:30:29;27.13;;;15.63;;
80776;SDS011;70169;51.262;6.336;2024-03-06T15:32:46;27.35;;;16.83;;
80776;SDS011;70169;51.262;6.336;2024-03-06T15:35:02;33.03;;;18.57;;
80776;SDS011;70169;51.262;6.336;2024-03-06T15:37:18;29.17;;;16.83;;
80776;SDS011;70169;51.262;6.336;2024-03-06T15:39:33;23.93;;;13.93;;
80776;SDS011;70169;51.262;6.336;2024-03-06T15:41:49;29.80;;;16.40;;
80776;SDS011;70169;51.262;6.336;2024-03-06T15:44:05;37.28;;;18.75;;
80776;SDS011;70169;51.262;6.336;2024-03-06T15:46:20;28.77;;;16.03;;
80776;SDS011;70169;51.262;6.336;2024-03-06T15:48:37;22.65;;;14.43;;
80776;SDS011;70169;51.262;6.336;2024-03-06T15:50:52;31.47;;;24.07;;
80776;SDS011;70169;51.262;6.336;2024-03-06T15:53:07;35.87;;;24.60;;
80776;SDS011;70169;51.262;6.336;2024-03-06T15:55:23;23.90;;;18.15;;
80776;SDS011;70169;51.262;6.336;2024-03-06T15:57:39;24.00;;;16.10;;
80776;SDS011;70169;51.262;6.336;2024-03-06T15:59:54;20.43;;;13.57;;
80776;SDS011;70169;51.262;6.336;2024-03-06T16:02:09;17.13;;;12.23;;
80776;SDS011;70169;51.262;6.336;2024-03-06T16:04:25;16.83;;;12.00;;
80776;SDS011;70169;51.262;6.336;2024-03-06T16:06:43;16.48;;;11.23;;
80776;SDS011;70169;51.262;6.336;2024-03-06T16:08:59;14.10;;;9.85;;
80776;SDS011;70169;51.262;6.336;2024-03-06T16:11:15;12.75;;;9.02;;
80776;SDS011;70169;51.262;6.336;2024-03-06T16:13:30;14.50;;;9.20;;
80776;SDS011;70169;51.262;6.336;2024-03-06T16:15:46;11.80;;;8.03;;
80776;SDS011;70169;51.262;6.336;2024-03-06T16:18:01;10.20;;;6.45;;
80776;SDS011;70169;51.262;6.336;2024-03-06T16:20:17;12.90;;;8.00;;
80776;SDS011;70169;51.262;6.336;2024-03-06T16:22:32;11.50;;;7.40;;
80776;SDS011;70169;51.262;6.336;2024-03-06T16:24:47;13.98;;;8.48;;
80776;SDS011;70169;51.262;6.336;2024-03-06T16:27:03;12.48;;;7.32;;
80776;SDS011;70169;51.262;6.336;2024-03-06T16:29:19;11.43;;;6.22;;
80776;SDS011;70169;51.262;6.336;2024-03-06T16:31:34;10.65;;;6.63;;
80776;SDS011;70169;51.262;6.336;2024-03-06T16:33:49;9.60;;;6.28;;
80776;SDS011;70169;51.262;6.336;2024-03-06T16:36:05;11.10;;;6.57;;
80776;SDS011;70169;51.262;6.336;2024-03-06T16:38:21;10.57;;;6.78;;
80776;SDS011;70169;51.262;6.336;2024-03-06T16:40:37;8.32;;;5.38;;
80776;SDS011;70169;51.262;6.336;2024-03-06T16:42:52;8.87;;;6.00;;
80776;SDS011;70169;51.262;6.336;2024-03-06T16:45:08;10.40;;;6.23;;
80776;SDS011;70169;51.262;6.336;2024-03-06T16:47:26;10.65;;;6.38;;
80776;SDS011;70169;51.262;6.336;2024-03-06T16:49:41;9.90;;;6.13;;
80776;SDS011;70169;51.262;6.336;2024-03-06T16:51:57;11.20;;;6.43;;
80776;SDS011;70169;51.262;6.336;2024-03-06T16:54:13;10.30;;;5.82;;
80776;SDS011;70169;51.262;6.336;2024-03-06T16:56:28;10.40;;;6.30;;
80776;SDS011;70169;51.262;6.336;2024-03-06T16:58:45;15.75;;;8.95;;
80776;SDS011;70169;51.262;6.336;2024-03-06T17:01:01;19.92;;;11.57;;
80776;SDS011;70169;51.262;6.336;2024-03-06T17:03:16;18.33;;;11.17;;
80776;SDS011;70169;51.262;6.336;2024-03-06T17:05:31;14.03;;;7.83;;
80776;SDS011;70169;51.262;6.336;2024-03-06T17:07:47;13.93;;;7.77;;
80776;SDS011;70169;51.262;6.336;2024-03-06T17:10:03;11.60;;;7.35;;
80776;SDS011;70169;51.262;6.336;2024-03-06T17:12:19;15.27;;;7.97;;
80776;SDS011;70169;51.262;6.336;2024-03-06T17:14:35;11.73;;;7.57;;
80776;SDS011;70169;51.262;6.336;2024-03-06T17:16:50;21.70;;;12.23;;
80776;SDS011;70169;51.262;6.336;2024-03-06T17:19:05;34.27;;;16.30;;
80776;SDS011;70169;51.262;6.336;2024-03-06T17:21:21;28.48;;;15.60;;
80776;SDS011;70169;51.262;6.336;2024-03-06T17:23:36;29.13;;;16.30;;
80776;SDS011;70169;51.262;6.336;2024-03-06T17:25:51;25.87;;;15.27;;
80776;SDS011;70169;51.262;6.336;2024-03-06T17:28:07;23.87;;;14.83;;
80776;SDS011;70169;51.262;6.336;2024-03-06T17:32:42;26.67;;;14.27;;
80776;SDS011;70169;51.262;6.336;2024-03-06T17:35:00;24.90;;;15.63;;
80776;SDS011;70169;51.262;6.336;2024-03-06T17:37:15;23.00;;;15.10;;
80776;SDS011;70169;51.262;6.336;2024-03-06T17:39:32;24.30;;;14.57;;
80776;SDS011;70169;51.262;6.336;2024-03-06T17:41:48;25.58;;;15.45;;
80776;SDS011;70169;51.262;6.336;2024-03-06T17:44:03;21.00;;;13.63;;
80776;SDS011;70169;51.262;6.336;2024-03-06T17:46:21;23.10;;;14.60;;
80776;SDS011;70169;51.262;6.336;2024-03-06T17:48:37;22.53;;;14.20;;
80776;SDS011;70169;51.262;6.336;2024-03-06T17:50:52;22.47;;;14.30;;
80776;SDS011;70169;51.262;6.336;2024-03-06T17:53:07;21.47;;;13.10;;
80776;SDS011;70169;51.262;6.336;2024-03-06T17:55:24;27.88;;;18.10;;
80776;SDS011;70169;51.262;6.336;2024-03-06T17:57:39;30.27;;;18.33;;
80776;SDS011;70169;51.262;6.336;2024-03-06T18:00:00;25.50;;;15.57;;
80776;SDS011;70169;51.262;6.336;2024-03-06T18:02:23;29.40;;;18.17;;
80776;SDS011;70169;51.262;6.336;2024-03-06T18:04:38;27.40;;;16.17;;
80776;SDS011;70169;51.262;6.336;2024-03-06T18:06:54;27.47;;;16.80;;
80776;SDS011;70169;51.262;6.336;2024-03-06T18:09:09;30.38;;;17.73;;
80776;SDS011;70169;51.262;6.336;2024-03-06T18:11:30;29.30;;;15.45;;
80776;SDS011;70169;51.262;6.336;2024-03-06T18:13:45;27.08;;;16.20;;
80776;SDS011;70169;51.262;6.336;2024-03-06T18:16:00;33.80;;;19.47;;
80776;SDS011;70169;51.262;6.336;2024-03-06T18:18:16;38.47;;;20.63;;
80776;SDS011;70169;51.262;6.336;2024-03-06T18:20:31;31.23;;;18.97;;
80776;SDS011;70169;51.262;6.336;2024-03-06T18:22:46;31.57;;;17.10;;
80776;SDS011;70169;51.262;6.336;2024-03-06T18:25:02;28.55;;;17.60;;
80776;SDS011;70169;51.262;6.336;2024-03-06T18:27:19;30.35;;;17.45;;
80776;SDS011;70169;51.262;6.336;2024-03-06T18:29:34;33.83;;;18.93;;
80776;SDS011;70169;51.262;6.336;2024-03-06T18:31:49;33.23;;;19.37;;
80776;SDS011;70169;51.262;6.336;2024-03-06T18:34:05;33.37;;;18.50;;
80776;SDS011;70169;51.262;6.336;2024-03-06T18:36:20;29.27;;;17.30;;
80776;SDS011;70169;51.262;6.336;2024-03-06T18:38:35;30.80;;;17.80;;
80776;SDS011;70169;51.262;6.336;2024-03-06T18:40:52;32.63;;;17.17;;
80776;SDS011;70169;51.262;6.336;2024-03-06T18:43:07;29.90;;;16.73;;
80776;SDS011;70169;51.262;6.336;2024-03-06T18:45:23;29.77;;;18.35;;
80776;SDS011;70169;51.262;6.336;2024-03-06T18:47:38;33.13;;;18.93;;
80776;SDS011;70169;51.262;6.336;2024-03-06T18:49:55;35.38;;;20.35;;
80776;SDS011;70169;51.262;6.336;2024-03-06T18:52:10;35.63;;;20.17;;
80776;SDS011;70169;51.262;6.336;2024-03-06T18:54:26;35.23;;;20.03;;
80776;SDS011;70169;51.262;6.336;2024-03-06T18:56:41;36.67;;;19.88;;
80776;SDS011;70169;51.262;6.336;2024-03-06T18:58:59;35.40;;;19.98;;
80776;SDS011;70169;51.262;6.336;2024-03-06T19:01:14;33.10;;;20.33;;
80776;SDS011;70169;51.262;6.336;2024-03-06T19:03:29;60.67;;;31.80;;
80776;SDS011;70169;51.262;6.336;2024-03-06T19:05:45;84.55;;;43.65;;
80776;SDS011;70169;51.262;6.336;2024-03-06T19:08:01;53.30;;;26.00;;
80776;SDS011;70169;51.262;6.336;2024-03-06T19:10:16;43.28;;;23.35;;
80776;SDS011;70169;51.262;6.336;2024-03-06T19:12:31;36.70;;;21.83;;
80776;SDS011;70169;51.262;6.336;2024-03-06T19:14:47;33.50;;;21.15;;
80776;SDS011;70169;51.262;6.336;2024-03-06T19:17:02;35.10;;;20.88;;
80776;SDS011;70169;51.262;6.336;2024-03-06T19:19:19;39.30;;;22.05;;
80776;SDS011;70169;51.262;6.336;2024-03-06T19:21:35;36.78;;;22.05;;
80776;SDS011;70169;51.262;6.336;2024-03-06T19:23:50;33.85;;;21.63;;
80776;SDS011;70169;51.262;6.336;2024-03-06T19:26:05;31.37;;;20.30;;
80776;SDS011;70169;51.262;6.336;2024-03-06T19:28:21;36.80;;;22.20;;
80776;SDS011;70169;51.262;6.336;2024-03-06T19:30:36;32.43;;;20.57;;
80776;SDS011;70169;51.262;6.336;2024-03-06T19:32:51;35.03;;;21.33;;
80776;SDS011;70169;51.262;6.336;2024-03-06T19:35:07;32.83;;;20.77;;
80776;SDS011;70169;51.262;6.336;2024-03-06T19:37:23;33.58;;;20.15;;
80776;SDS011;70169;51.262;6.336;2024-03-06T19:39:41;36.28;;;22.45;;
80776;SDS011;70169;51.262;6.336;2024-03-06T19:41:56;35.77;;;21.03;;
80776;SDS011;70169;51.262;6.336;2024-03-06T19:44:13;35.67;;;21.05;;
80776;SDS011;70169;51.262;6.336;2024-03-06T19:46:28;32.97;;;19.00;;
80776;SDS011;70169;51.262;6.336;2024-03-06T19:48:43;37.10;;;20.43;;
80776;SDS011;70169;51.262;6.336;2024-03-06T19:50:59;36.23;;;19.53;;
80776;SDS011;70169;51.262;6.336;2024-03-06T19:53:14;31.70;;;18.63;;
80776;SDS011;70169;51.262;6.336;2024-03-06T19:55:30;42.63;;;23.17;;
80776;SDS011;70169;51.262;6.336;2024-03-06T19:57:46;40.97;;;21.25;;
80776;SDS011;70169;51.262;6.336;2024-03-06T20:00:03;38.28;;;21.10;;
80776;SDS011;70169;51.262;6.336;2024-03-06T20:02:25;36.85;;;19.63;;
80776;SDS011;70169;51.262;6.336;2024-03-06T20:04:41;34.80;;;19.02;;
80776;SDS011;70169;51.262;6.336;2024-03-06T20:06:56;35.47;;;19.57;;
80776;SDS011;70169;51.262;6.336;2024-03-06T20:09:11;32.10;;;18.53;;
80776;SDS011;70169;51.262;6.336;2024-03-06T20:11:28;36.92;;;19.85;;
80776;SDS011;70169;51.262;6.336;2024-03-06T20:13:43;32.70;;;17.47;;
80776;SDS011;70169;51.262;6.336;2024-03-06T20:15:59;33.13;;;19.77;;
80776;SDS011;70169;51.262;6.336;2024-03-06T20:18:14;38.10;;;19.10;;
80776;SDS011;70169;51.262;6.336;2024-03-06T20:20:29;33.47;;;18.87;;
80776;SDS011;70169;51.262;6.336;2024-03-06T20:22:46;35.80;;;18.83;;
80776;SDS011;70169;51.262;6.336;2024-03-06T20:25:01;33.03;;;18.03;;
80776;SDS011;70169;51.262;6.336;2024-03-06T20:27:18;32.60;;;18.90;;
80776;SDS011;70169;51.262;6.336;2024-03-06T20:29:33;34.95;;;19.05;;
80776;SDS011;70169;51.262;6.336;2024-03-06T20:31:49;32.70;;;17.90;;
80776;SDS011;70169;51.262;6.336;2024-03-06T20:34:04;31.27;;;17.03;;
80776;SDS011;70169;51.262;6.336;2024-03-06T20:36:21;34.38;;;20.30;;
80776;SDS011;70169;51.262;6.336;2024-03-06T20:38:37;37.40;;;20.80;;
80776;SDS011;70169;51.262;6.336;2024-03-06T20:40:53;34.65;;;18.33;;
80776;SDS011;70169;51.262;6.336;2024-03-06T20:43:08;33.70;;;19.00;;
80776;SDS011;70169;51.262;6.336;2024-03-06T20:45:23;31.50;;;17.58;;
80776;SDS011;70169;51.262;6.336;2024-03-06T20:47:39;31.40;;;16.77;;
80776;SDS011;70169;51.262;6.336;2024-03-06T20:49:57;29.50;;;16.50;;
80776;SDS011;70169;51.262;6.336;2024-03-06T20:52:13;30.73;;;17.47;;
80776;SDS011;70169;51.262;6.336;2024-03-06T20:54:28;31.43;;;17.50;;
80776;SDS011;70169;51.262;6.336;2024-03-06T20:56:43;30.83;;;16.67;;
80776;SDS011;70169;51.262;6.336;2024-03-06T20:58:59;29.52;;;16.70;;
80776;SDS011;70169;51.262;6.336;2024-03-06T21:01:14;32.83;;;17.08;;
80776;SDS011;70169;51.262;6.336;2024-03-06T21:03:30;31.67;;;17.43;;
80776;SDS011;70169;51.262;6.336;2024-03-06T21:05:45;31.47;;;16.93;;
80776;SDS011;70169;51.262;6.336;2024-03-06T21:08:00;32.20;;;16.67;;
80776;SDS011;70169;51.262;6.336;2024-03-06T21:10:16;32.83;;;17.80;;
80776;SDS011;70169;51.262;6.336;2024-03-06T21:12:32;30.77;;;17.38;;
80776;SDS011;70169;51.262;6.336;2024-03-06T21:14:47;29.43;;;16.13;;
80776;SDS011;70169;51.262;6.336;2024-03-06T21:17:05;30.98;;;17.58;;
80776;SDS011;70169;51.262;6.336;2024-03-06T21:19:21;34.03;;;17.83;;
80776;SDS011;70169;51.262;6.336;2024-03-06T21:21:37;31.17;;;16.87;;
80776;SDS011;70169;51.262;6.336;2024-03-06T21:23:52;29.67;;;16.13;;
80776;SDS011;70169;51.262;6.336;2024-03-06T21:26:07;29.40;;;16.10;;
80776;SDS011;70169;51.262;6.336;2024-03-06T21:28:22;31.40;;;16.30;;
80776;SDS011;70169;51.262;6.336;2024-03-06T21:30:38;28.42;;;16.58;;
80776;SDS011;70169;51.262;6.336;2024-03-06T21:32:53;32.17;;;17.23;;
80776;SDS011;70169;51.262;6.336;2024-03-06T21:35:08;30.43;;;16.07;;
80776;SDS011;70169;51.262;6.336;2024-03-06T21:37:24;34.03;;;17.98;;
80776;SDS011;70169;51.262;6.336;2024-03-06T21:39:40;29.73;;;16.87;;
80776;SDS011;70169;51.262;6.336;2024-03-06T21:41:55;31.13;;;16.83;;
80776;SDS011;70169;51.262;6.336;2024-03-06T21:44:10;28.00;;;14.70;;
80776;SDS011;70169;51.262;6.336;2024-03-06T21:46:26;26.50;;;14.63;;
80776;SDS011;70169;51.262;6.336;2024-03-06T21:48:41;30.27;;;16.05;;
80776;SDS011;70169;51.262;6.336;2024-03-06T21:50:56;30.77;;;16.70;;
80776;SDS011;70169;51.262;6.336;2024-03-06T21:53:12;29.40;;;15.87;;
80776;SDS011;70169;51.262;6.336;2024-03-06T21:55:27;33.07;;;18.10;;
80776;SDS011;70169;51.262;6.336;2024-03-06T21:57:42;31.67;;;17.40;;
80776;SDS011;70169;51.262;6.336;2024-03-06T21:59:58;31.60;;;17.67;;
80776;SDS011;70169;51.262;6.336;2024-03-06T22:02:13;29.27;;;15.57;;
80776;SDS011;70169;51.262;6.336;2024-03-06T22:04:28;32.20;;;15.77;;
80776;SDS011;70169;51.262;6.336;2024-03-06T22:06:44;32.60;;;16.83;;
80776;SDS011;70169;51.262;6.336;2024-03-06T22:08:59;30.50;;;15.55;;
80776;SDS011;70169;51.262;6.336;2024-03-06T22:11:15;26.98;;;14.93;;
80776;SDS011;70169;51.262;6.336;2024-03-06T22:13:30;28.97;;;15.00;;
80776;SDS011;70169;51.262;6.336;2024-03-06T22:15:49;26.98;;;14.57;;
80776;SDS011;70169;51.262;6.336;2024-03-06T22:18:04;25.73;;;14.03;;
80776;SDS011;70169;51.262;6.336;2024-03-06T22:20:20;29.52;;;16.50;;
80776;SDS011;70169;51.262;6.336;2024-03-06T22:22:35;35.13;;;19.17;;
80776;SDS011;70169;51.262;6.336;2024-03-06T22:24:50;36.35;;;19.48;;
80776;SDS011;70169;51.262;6.336;2024-03-06T22:27:07;32.42;;;17.58;;
80776;SDS011;70169;51.262;6.336;2024-03-06T22:29:22;32.50;;;17.13;;
80776;SDS011;70169;51.262;6.336;2024-03-06T22:31:37;31.33;;;16.85;;
80776;SDS011;70169;51.262;6.336;2024-03-06T22:33:53;34.22;;;17.42;;
80776;SDS011;70169;51.262;6.336;2024-03-06T22:36:15;38.30;;;19.42;;
80776;SDS011;70169;51.262;6.336;2024-03-06T22:38:31;36.38;;;19.65;;
80776;SDS011;70169;51.262;6.336;2024-03-06T22:40:47;32.97;;;18.35;;
80776;SDS011;70169;51.262;6.336;2024-03-06T22:43:02;33.87;;;16.73;;
80776;SDS011;70169;51.262;6.336;2024-03-06T22:45:19;32.10;;;17.40;;
80776;SDS011;70169;51.262;6.336;2024-03-06T22:47:34;34.10;;;18.07;;
80776;SDS011;70169;51.262;6.336;2024-03-06T22:49:51;39.72;;;20.48;;
80776;SDS011;70169;51.262;6.336;2024-03-06T22:52:07;37.03;;;18.75;;
80776;SDS011;70169;51.262;6.336;2024-03-06T22:54:22;34.93;;;18.30;;
80776;SDS011;70169;51.262;6.336;2024-03-06T22:56:37;30.40;;;15.90;;
80776;SDS011;70169;51.262;6.336;2024-03-06T22:58:54;29.25;;;16.60;;
80776;SDS011;70169;51.262;6.336;2024-03-06T23:01:10;28.67;;;15.10;;
80776;SDS011;70169;51.262;6.336;2024-03-06T23:03:26;28.70;;;15.55;;
80776;SDS011;70169;51.262;6.336;2024-03-06T23:05:44;32.30;;;16.33;;
80776;SDS011;70169;51.262;6.336;2024-03-06T23:08:00;30.83;;;15.70;;
80776;SDS011;70169;51.262;6.336;2024-03-06T23:10:15;27.27;;;15.70;;
80776;SDS011;70169;51.262;6.336;2024-03-06T23:12:32;28.33;;;14.70;;
80776;SDS011;70169;51.262;6.336;2024-03-06T23:14:47;25.53;;;13.93;;
80776;SDS011;70169;51.262;6.336;2024-03-06T23:17:03;27.17;;;13.87;;
80776;SDS011;70169;51.262;6.336;2024-03-06T23:19:18;26.02;;;12.95;;
80776;SDS011;70169;51.262;6.336;2024-03-06T23:21:34;27.33;;;13.57;;
80776;SDS011;70169;51.262;6.336;2024-03-06T23:23:50;29.08;;;15.63;;
80776;SDS011;70169;51.262;6.336;2024-03-06T23:26:05;32.43;;;15.97;;
80776;SDS011;70169;51.262;6.336;2024-03-06T23:28:21;28.08;;;14.73;;
80776;SDS011;70169;51.262;6.336;2024-03-06T23:30:36;32.97;;;17.03;;
80776;SDS011;70169;51.262;6.336;2024-03-06T23:32:51;33.40;;;18.30;;
80776;SDS011;70169;51.262;6.336;2024-03-06T23:35:08;33.42;;;19.08;;
80776;SDS011;70169;51.262;6.336;2024-03-06T23:37:25;32.88;;;17.73;;
80776;SDS011;70169;51.262;6.336;2024-03-06T23:39:41;34.03;;;17.50;;
80776;SDS011;70169;51.262;6.336;2024-03-06T23:41:56;38.70;;;17.75;;
80776;SDS011;70169;51.262;6.336;2024-03-06T23:44:12;29.73;;;17.13;;
80776;SDS011;70169;51.262;6.336;2024-03-06T23:46:27;36.50;;;17.13;;
80776;SDS011;70169;51.262;6.336;2024-03-06T23:48:42;34.93;;;17.30;;
80776;SDS011;70169;51.262;6.336;2024-03-06T23:50:57;31.90;;;16.87;;
80776;SDS011;70169;51.262;6.336;2024-03-06T23:53:13;28.27;;;15.20;;
80776;SDS011;70169;51.262;6.336;2024-03-06T23:55:29;25.55;;;13.10;;
80776;SDS011;70169;51.262;6.336;2024-03-06T23:57:45;28.58;;;14.77;;
